Radiosonde details



Informationen :

Serial : Y0552605
Type : Vaisala RS41-NG
Date of production : 30.01.2026
Frequency : 404.800MHz
Launchsite : Boise, Boise Air Terminal
Nearest town : Idaho City, US (27.1km)

Altitude (Max) : 13023m at 2026-09-05 23:45:12
Speed (Max) : 172km/h at altitude 11336m

Average speed : 95km/h
Average ascent rate : 5m/s
Average descent rate : 0m/s
Ascent rate (Max) : 8.5m/s
Descent rate (Max): 2.4m/s

First frame :
KE7DJD at 2026-09-05 23:04:22 at altitude 1291m (OG: 374m)
Last frame :
KE7DJD at 2026-09-05 23:45:12 at altitude 13023m (OG: 11822m)

Flighttime : 40m50s
Ascent time : 40m50s
Descent time : 0s
Uptime : -
Killtimer : -

Distance (Straight line distance): 65km

Distance (Route):


Frames : 118


Measurement :

Temperature : -48.3°C
Humidity : 2.1%
Pressure : 0hPa


Vertical profile (SkewT) :


Elevation profile :



Receiving stations :


Receiver Frames First received Last received
KE7DJD 118 2026-09-05 23:04:22 2026-09-05 23:45:12

Share per receiver :



All frames :


Receiver Date Latitude Longitude Direction Speed Altitude Climb Temperature Humidity Pressure Voltage Killtimer Uptime BKT XDATA
KE7DJD2026-09-05 23:45:1244.07151-115.8065646°91km/h13023m2.9m/s-48.3°C2.1%0hPa0V00:00:0000:00:0000:00:00
KE7DJD2026-09-05 23:44:5344.06754-115.8109737°93km/h12940m5.6m/s-48.2°C2.2%0hPa0V00:00:0000:00:0000:00:00
KE7DJD2026-09-05 23:44:3244.06347-115.8153944°108km/h12852m6.0m/s-48.4°C2.3%0hPa0V00:00:0000:00:0000:00:00
KE7DJD2026-09-05 23:44:1244.05899-115.8201235°108km/h12766m5.0m/s-48.4°C2.4%0hPa0V00:00:0000:00:0000:00:00
KE7DJD2026-09-05 23:43:5144.05430-115.8248134°106km/h12677m5.6m/s-47.9°C2.4%0hPa0V00:00:0000:00:0000:00:00
KE7DJD2026-09-05 23:43:3044.04966-115.8293232°104km/h12590m5.8m/s-48.5°C2.8%0hPa0V00:00:0000:00:0000:00:00
KE7DJD2026-09-05 23:43:1044.04503-115.8335737°113km/h12504m5.4m/s-48.6°C3.1%0hPa0V00:00:0000:00:0000:00:00
KE7DJD2026-09-05 23:42:5044.04027-115.8381327°108km/h12411m4.5m/s-48.8°C3.6%0hPa0V00:00:0000:00:0000:00:00
KE7DJD2026-09-05 23:42:3044.03525-115.8432137°128km/h12320m5.6m/s-48.9°C3.8%0hPa0V00:00:0000:00:0000:00:00
KE7DJD2026-09-05 23:42:0944.02964-115.8491739°131km/h12218m4.3m/s-48.5°C4.1%0hPa0V00:00:0000:00:0000:00:00
KE7DJD2026-09-05 23:41:4944.02385-115.8554736°144km/h12113m5.9m/s-48.4°C4.4%0hPa0V00:00:0000:00:0000:00:00
KE7DJD2026-09-05 23:41:2944.01801-115.8617837°144km/h12016m5.7m/s-48.3°C4.8%0hPa0V00:00:0000:00:0000:00:00
KE7DJD2026-09-05 23:41:0744.01184-115.8684236°151km/h11916m5.2m/s-48.2°C4.9%0hPa0V00:00:0000:00:0000:00:00
KE7DJD2026-09-05 23:40:4744.00569-115.8745334°146km/h11823m6.2m/s-48.5°C5.7%0hPa0V00:00:0000:00:0000:00:00
KE7DJD2026-09-05 23:40:2743.99921-115.8802334°150km/h11733m5.2m/s-48.7°C6.6%0hPa0V00:00:0000:00:0000:00:00
KE7DJD2026-09-05 23:40:0643.99213-115.8861331°157km/h11643m4.6m/s-49.6°C8.8%0hPa0V00:00:0000:00:0000:00:00
KE7DJD2026-09-05 23:39:4543.98511-115.8914828°144km/h11561m4.0m/s-49.8°C10.3%0hPa0V00:00:0000:00:0000:00:00
KE7DJD2026-09-05 23:39:2443.97829-115.8972332°141km/h11476m3.5m/s-49.9°C12.5%0hPa0V00:00:0000:00:0000:00:00
KE7DJD2026-09-05 23:39:0443.97168-115.9033140°157km/h11404m4.8m/s-50.4°C17.1%0hPa0V00:00:0000:00:0000:00:00
KE7DJD2026-09-05 23:38:4443.96469-115.9096833°170km/h11336m4.5m/s-51.4°C24.1%0hPa0V00:00:0000:00:0000:00:00
KE7DJD2026-09-05 23:38:2343.95730-115.9158633°148km/h11261m5.6m/s-51.8°C26.1%0hPa0V00:00:0000:00:0000:00:00
KE7DJD2026-09-05 23:38:0243.95000-115.9220738°148km/h11182m4.3m/s-52.1°C25.3%0hPa0V00:00:0000:00:0000:00:00
KE7DJD2026-09-05 23:37:4243.94296-115.9277629°164km/h11094m4.3m/s-51.9°C31.9%0hPa0V00:00:0000:00:0000:00:00
KE7DJD2026-09-05 23:37:2143.93529-115.9336532°157km/h11001m5.4m/s-52.4°C39.6%0hPa0V00:00:0000:00:0000:00:00
KE7DJD2026-09-05 23:37:0143.92823-115.9392231°142km/h10907m3.7m/s-51.7°C38.0%0hPa0V00:00:0000:00:0000:00:00
KE7DJD2026-09-05 23:36:4143.92111-115.9449829°155km/h10812m5.4m/s-51.0°C38.3%0hPa0V00:00:0000:00:0000:00:00
KE7DJD2026-09-05 23:36:1943.91340-115.9509130°144km/h10708m5.8m/s-50.5°C39.7%0hPa0V00:00:0000:00:0000:00:00
KE7DJD2026-09-05 23:35:5943.90660-115.9563028°142km/h10611m5.3m/s-49.7°C38.6%0hPa0V00:00:0000:00:0000:00:00
KE7DJD2026-09-05 23:35:3843.89956-115.9619629°161km/h10508m4.1m/s-49.2°C40.3%0hPa0V00:00:0000:00:0000:00:00
KE7DJD2026-09-05 23:35:1843.89302-115.9679038°151km/h10415m4.5m/s-48.6°C42.6%0hPa0V00:00:0000:00:0000:00:00
KE7DJD2026-09-05 23:34:5743.88639-115.9738134°144km/h10317m5.7m/s-47.9°C42.5%0hPa0V00:00:0000:00:0000:00:00
KE7DJD2026-09-05 23:34:3643.87983-115.9794325°150km/h10218m4.9m/s-47.2°C42.1%0hPa0V00:00:0000:00:0000:00:00
KE7DJD2026-09-05 23:34:1743.87372-115.9845432°151km/h10123m4.4m/s-46.3°C40.7%0hPa0V00:00:0000:00:0000:00:00
KE7DJD2026-09-05 23:33:5543.86742-115.9898733°135km/h10027m5.7m/s-45.5°C40.8%0hPa0V00:00:0000:00:0000:00:00
KE7DJD2026-09-05 23:33:3543.86124-115.9950633°146km/h9929m5.2m/s-44.6°C38.5%0hPa0V00:00:0000:00:0000:00:00
KE7DJD2026-09-05 23:33:1443.85537-116.0000332°137km/h9841m5.6m/s-43.9°C38.9%0hPa0V00:00:0000:00:0000:00:00
KE7DJD2026-09-05 23:32:5443.84960-116.0049333°119km/h9754m5.1m/s-43.1°C38.9%0hPa0V00:00:0000:00:0000:00:00
KE7DJD2026-09-05 23:32:3443.84352-116.0099428°141km/h9665m4.6m/s-42.5°C40.0%0hPa0V00:00:0000:00:0000:00:00
KE7DJD2026-09-05 23:32:1343.83787-116.0145638°133km/h9580m4.0m/s-41.9°C44.8%0hPa0V00:00:0000:00:0000:00:00
KE7DJD2026-09-05 23:31:5243.83240-116.0192328°131km/h9489m4.2m/s-41.2°C48.0%0hPa0V00:00:0000:00:0000:00:00
KE7DJD2026-09-05 23:31:3343.82732-116.0236837°113km/h9405m3.2m/s-40.4°C47.2%0hPa0V00:00:0000:00:0000:00:00
KE7DJD2026-09-05 23:30:5243.81676-116.0326433°128km/h9229m4.4m/s-38.7°C39.5%0hPa0V00:00:0000:00:0000:00:00
KE7DJD2026-09-05 23:30:3143.81163-116.0369727°117km/h9140m4.2m/s-38.0°C36.2%0hPa0V00:00:0000:00:0000:00:00
KE7DJD2026-09-05 23:30:1043.80640-116.0414328°117km/h9054m5.2m/s-37.4°C50.9%0hPa0V00:00:0000:00:0000:00:00
KE7DJD2026-09-05 23:29:4943.80112-116.0456231°115km/h8955m5.0m/s-36.7°C48.1%0hPa0V00:00:0000:00:0000:00:00
KE7DJD2026-09-05 23:29:2943.79621-116.0496932°106km/h8868m4.5m/s-36.0°C33.1%0hPa0V00:00:0000:00:0000:00:00
KE7DJD2026-09-05 23:29:0843.79121-116.0537528°104km/h8765m4.3m/s-35.6°C61.9%0hPa0V00:00:0000:00:0000:00:00
KE7DJD2026-09-05 23:28:4843.78653-116.0577530°108km/h8673m4.1m/s-34.7°C55.5%0hPa0V00:00:0000:00:0000:00:00
KE7DJD2026-09-05 23:28:2843.78161-116.0618423°104km/h8575m4.9m/s-34.1°C55.4%0hPa0V00:00:0000:00:0000:00:00
KE7DJD2026-09-05 23:28:0743.77697-116.0656833°117km/h8480m3.6m/s-33.2°C51.8%0hPa0V00:00:0000:00:0000:00:00
KE7DJD2026-09-05 23:27:4643.77217-116.0699539°93km/h8380m3.9m/s-32.2°C48.7%0hPa0V00:00:0000:00:0000:00:00
KE7DJD2026-09-05 23:27:2643.76762-116.0738328°100km/h8288m5.7m/s-31.4°C41.0%0hPa0V00:00:0000:00:0000:00:00
KE7DJD2026-09-05 23:27:0543.76277-116.0780034°106km/h8190m5.0m/s-30.5°C29.9%0hPa0V00:00:0000:00:0000:00:00
KE7DJD2026-09-05 23:26:4443.75809-116.0818423°102km/h8087m5.2m/s-29.7°C29.8%0hPa0V00:00:0000:00:0000:00:00
KE7DJD2026-09-05 23:26:2443.75342-116.0852836°110km/h7989m4.7m/s-28.8°C18.9%0hPa0V00:00:0000:00:0000:00:00
KE7DJD2026-09-05 23:26:0443.74887-116.0887221°100km/h7892m4.1m/s-28.0°C17.0%0hPa0V00:00:0000:00:0000:00:00
KE7DJD2026-09-05 23:25:4343.74412-116.0923930°104km/h7786m4.7m/s-27.2°C15.7%0hPa0V00:00:0000:00:0000:00:00
KE7DJD2026-09-05 23:25:2343.73967-116.0957923°93km/h7691m5.4m/s-26.7°C25.5%0hPa0V00:00:0000:00:0000:00:00
KE7DJD2026-09-05 23:25:0243.73488-116.0990930°113km/h7589m4.6m/s-26.2°C34.2%0hPa0V00:00:0000:00:0000:00:00
KE7DJD2026-09-05 23:24:4243.73036-116.1023336°102km/h7496m4.4m/s-26.0°C51.7%0hPa0V00:00:0000:00:0000:00:00
KE7DJD2026-09-05 23:24:2143.72567-116.1056129°93km/h7399m4.2m/s-25.4°C72.0%0hPa0V00:00:0000:00:0000:00:00
KE7DJD2026-09-05 23:24:0043.72088-116.1089831°113km/h7304m3.9m/s-24.7°C67.4%0hPa0V00:00:0000:00:0000:00:00
KE7DJD2026-09-05 23:23:3943.71608-116.1123132°106km/h7191m5.1m/s-23.8°C61.5%0hPa0V00:00:0000:00:0000:00:00
KE7DJD2026-09-05 23:23:1943.71158-116.1157015°100km/h7091m7.2m/s-22.8°C57.7%0hPa0V00:00:0000:00:0000:00:00
KE7DJD2026-09-05 23:22:5943.70714-116.1191432°111km/h6998m2.7m/s-22.1°C44.8%0hPa0V00:00:0000:00:0000:00:00
KE7DJD2026-09-05 23:22:3943.70273-116.1227337°108km/h6911m3.4m/s-21.2°C40.6%0hPa0V00:00:0000:00:0000:00:00
KE7DJD2026-09-05 23:22:1843.69823-116.1263429°102km/h6818m5.3m/s-20.6°C39.3%0hPa0V00:00:0000:00:0000:00:00
KE7DJD2026-09-05 23:21:5743.69373-116.1297831°106km/h6727m2.9m/s-20.0°C37.5%0hPa0V00:00:0000:00:0000:00:00
KE7DJD2026-09-05 23:21:3743.68956-116.1329028°84km/h6640m5.1m/s-19.3°C34.4%0hPa0V00:00:0000:00:0000:00:00
KE7DJD2026-09-05 23:21:1643.68523-116.1361422°91km/h6553m5.4m/s-18.7°C32.0%0hPa0V00:00:0000:00:0000:00:00
KE7DJD2026-09-05 23:20:5643.68113-116.1389634°113km/h6466m3.3m/s-18.2°C34.6%0hPa0V00:00:0000:00:0000:00:00
KE7DJD2026-09-05 23:20:3543.67653-116.1417817°86km/h6372m4.8m/s-17.5°C37.6%0hPa0V00:00:0000:00:0000:00:00
KE7DJD2026-09-05 23:20:1443.67165-116.1446127°102km/h6283m4.8m/s-17.3°C51.9%0hPa0V00:00:0000:00:0000:00:00
KE7DJD2026-09-05 23:19:5443.66698-116.1474320°117km/h6202m4.8m/s-16.9°C52.1%0hPa0V00:00:0000:00:0000:00:00
KE7DJD2026-09-05 23:19:3343.66208-116.1503433°111km/h6115m3.2m/s-16.4°C53.8%0hPa0V00:00:0000:00:0000:00:00
KE7DJD2026-09-05 23:18:5243.65273-116.1564035°93km/h5927m8.0m/s-15.0°C47.5%0hPa0V00:00:0000:00:0000:00:00
KE7DJD2026-09-05 23:18:3243.64786-116.1594617°89km/h5808m3.9m/s-13.9°C43.1%0hPa0V00:00:0000:00:0000:00:00
KE7DJD2026-09-05 23:18:1043.64345-116.1628237°99km/h5695m4.7m/s-13.1°C38.1%0hPa0V00:00:0000:00:0000:00:00
KE7DJD2026-09-05 23:17:4943.63940-116.1659125°82km/h5578m4.5m/s-12.3°C31.8%0hPa0V00:00:0000:00:0000:00:00
KE7DJD2026-09-05 23:17:2843.63582-116.1691241°78km/h5468m4.4m/s-11.3°C28.2%0hPa0V00:00:0000:00:0000:00:00
KE7DJD2026-09-05 23:17:1743.63244-116.1723438°80km/h5339m7.9m/s-10.6°C22.1%0hPa0V00:00:0000:00:0000:00:00
KE7DJD2026-09-05 23:16:4743.62907-116.1745616°82km/h5217m4.8m/s-9.8°C15.0%0hPa0V00:00:0000:00:0000:00:00
KE7DJD2026-09-05 23:16:2643.62603-116.1765131°66km/h5087m6.4m/s-8.8°C13.7%0hPa0V00:00:0000:00:0000:00:00
KE7DJD2026-09-05 23:16:0643.62303-116.1784373km/h4969m8.5m/s-7.9°C11.5%0hPa0V00:00:0000:00:0000:00:00
KE7DJD2026-09-05 23:15:4543.61966-116.1797057km/h4854m4.7m/s-7.2°C9.2%0hPa0V00:00:0000:00:0000:00:00
KE7DJD2026-09-05 23:15:2543.61605-116.1805330°64km/h4738m5.8m/s-6.6°C13.7%0hPa0V00:00:0000:00:0000:00:00
KE7DJD2026-09-05 23:15:0343.61221-116.1820224°91km/h4647m4.2m/s-7.5°C47.2%0hPa0V00:00:0000:00:0000:00:00
KE7DJD2026-09-05 23:14:4243.60874-116.1831764km/h4539m4.2m/s-6.8°C66.8%0hPa0V00:00:0000:00:0000:00:00
KE7DJD2026-09-05 23:14:2143.60500-116.1840912°84km/h4426m5.1m/s-5.9°C71.1%0hPa0V00:00:0000:00:0000:00:00
KE7DJD2026-09-05 23:14:0243.60164-116.1853622°66km/h4312m8.2m/s-5.2°C77.9%0hPa0V00:00:0000:00:0000:00:00
KE7DJD2026-09-05 23:13:4043.59792-116.1869410°73km/h4201m5.8m/s-4.5°C82.8%0hPa0V00:00:0000:00:0000:00:00
KE7DJD2026-09-05 23:13:1943.59432-116.1883013°82km/h4094m6.0m/s-3.5°C70.1%0hPa0V00:00:0000:00:0000:00:00
KE7DJD2026-09-05 23:12:5843.59095-116.1899528°51km/h3988m5.4m/s-2.5°C64.9%0hPa0V00:00:0000:00:0000:00:00
KE7DJD2026-09-05 23:12:3743.58787-116.1916020°68km/h3880m6.0m/s-1.6°C62.3%0hPa0V00:00:0000:00:0000:00:00
KE7DJD2026-09-05 23:12:1743.58533-116.1932410°42km/h3770m4.4m/s-0.8°C63.1%0hPa0V00:00:0000:00:0000:00:00
KE7DJD2026-09-05 23:11:5643.58239-116.1950728°40km/h3654m6.8m/s-0.1°C63.4%0hPa0V00:00:0000:00:0000:00:00
KE7DJD2026-09-05 23:11:3643.57995-116.1967039°51km/h3539m5.0m/s0.9°C62.8%0hPa0V00:00:0000:00:0000:00:00
KE7DJD2026-09-05 23:11:1543.57732-116.1978038km/h3426m5.0m/s1.6°C65.8%0hPa0V00:00:0000:00:0000:00:00
KE7DJD2026-09-05 23:10:5543.57516-116.1992215°40km/h3311m7.7m/s2.3°C67.5%0hPa0V00:00:0000:00:0000:00:00
KE7DJD2026-09-05 23:10:3443.57323-116.2004225°20km/h3188m4.8m/s3.4°C61.1%0hPa0V00:00:0000:00:0000:00:00
KE7DJD2026-09-05 23:10:1343.57162-116.2014821°35km/h3075m6.2m/s4.3°C63.4%0hPa0V00:00:0000:00:0000:00:00
KE7DJD2026-09-05 23:09:5343.57018-116.2023758°37km/h2979m3.2m/s5.0°C66.4%0hPa0V00:00:0000:00:0000:00:00
KE7DJD2026-09-05 23:09:3243.56895-116.2033565°24km/h2872m5.9m/s5.9°C64.3%0hPa0V00:00:0000:00:0000:00:00
KE7DJD2026-09-05 23:09:1143.56800-116.2040122km/h2758m3.5m/s6.8°C64.6%0hPa0V00:00:0000:00:0000:00:00
KE7DJD2026-09-05 23:08:5143.56721-116.2046480°16km/h2659m4.4m/s7.3°C65.3%0hPa0V00:00:0000:00:0000:00:00
KE7DJD2026-09-05 23:08:3043.56658-116.20522356°27km/h2565m3.9m/s8.0°C63.5%0hPa0V00:00:0000:00:0000:00:00
KE7DJD2026-09-05 23:08:1043.56622-116.2058136°22km/h2465m5.6m/s8.9°C61.1%0hPa0V00:00:0000:00:0000:00:00
KE7DJD2026-09-05 23:07:5043.56590-116.20648270°4km/h2362m3.7m/s9.7°C61.6%0hPa0V00:00:0000:00:0000:00:00
KE7DJD2026-09-05 23:07:2943.56554-116.2069750°5km/h2260m2.9m/s10.5°C59.5%0hPa0V00:00:0000:00:0000:00:00
KE7DJD2026-09-05 23:07:0943.56531-116.20753167°13km/h2150m2.4m/s11.3°C57.2%0hPa0V00:00:0000:00:0000:00:00
KE7DJD2026-09-05 23:06:4743.56500-116.20783302°9km/h2049m5.6m/s12.2°C55.0%0hPa0V00:00:0000:00:0000:00:00
KE7DJD2026-09-05 23:06:2743.56455-116.20812350°20km/h1939m4.8m/s13.0°C53.7%0hPa0V00:00:0000:00:0000:00:00
KE7DJD2026-09-05 23:06:0543.56432-116.2083099°16km/h1832m7.7m/s13.6°C55.4%0hPa0V00:00:0000:00:0000:00:00
KE7DJD2026-09-05 23:05:4543.56453-116.2086626°11km/h1730m5.5m/s14.5°C53.3%0hPa0V00:00:0000:00:0000:00:00
KE7DJD2026-09-05 23:05:2343.56451-116.20850255°18km/h1613m6.9m/s15.7°C50.2%0hPa0V00:00:0000:00:0000:00:00
KE7DJD2026-09-05 23:05:0343.56448-116.20831307°7km/h1508m6.8m/s16.7°C0%0hPa0V00:00:0000:00:0000:00:00
KE7DJD2026-09-05 23:04:4243.56465-116.20824133°24km/h1408m4.6m/s0°C0%0hPa0V00:00:0000:00:0000:00:00
KE7DJD2026-09-05 23:04:2243.56498-116.20850159°29km/h1291m6.0m/s0°C0%0hPa0V00:00:0000:00:0000:00:00


GPX KML Map

© wettersonde.net (DO2JMG) - 2026  -  -